createdAt,value
2018-04-15T00:02:02.344Z,101384.76
2018-04-15T00:05:07.999Z,101388.18
2018-04-15T00:08:13.199Z,101380.91
2018-04-15T00:11:18.857Z,101373.68
2018-04-15T00:14:24.072Z,101362.15
2018-04-15T00:17:29.505Z,101353.59
2018-04-15T00:20:34.991Z,101346.77
2018-04-15T00:23:40.924Z,101339.51
2018-04-15T00:26:47.038Z,101328.40
2018-04-15T00:29:52.786Z,101312.61
2018-04-15T00:32:57.993Z,101310.47
2018-04-15T00:36:03.205Z,101309.21
2018-04-15T00:39:08.413Z,101302.36
2018-04-15T00:42:13.644Z,101301.52
2018-04-15T00:45:18.855Z,101299.83
2018-04-15T00:48:24.126Z,101295.56
2018-04-15T00:51:30.509Z,101296.01
2018-04-15T00:54:36.326Z,101295.14
2018-04-15T00:57:41.554Z,101291.30
2018-04-15T01:00:46.477Z,101287.05
2018-04-15T01:03:52.226Z,101296.88
2018-04-15T01:06:57.159Z,101290.89
2018-04-15T01:10:04.670Z,101288.35
2018-04-15T01:13:10.201Z,101290.08
2018-04-15T01:16:15.841Z,101292.64
2018-04-15T01:19:20.772Z,101294.34
2018-04-15T01:22:25.387Z,101294.78
2018-04-15T01:25:31.345Z,101289.66
2018-04-15T01:28:37.193Z,101289.23
2018-04-15T01:31:42.398Z,101290.52
2018-04-15T01:34:47.334Z,101285.84
2018-04-15T01:37:52.585Z,101274.76
2018-04-15T01:40:57.813Z,101271.75
2018-04-15T01:44:04.005Z,101279.08
2018-04-15T01:47:09.214Z,101271.84
2018-04-15T01:50:14.861Z,101267.13
2018-04-15T01:53:20.084Z,101257.33
2018-04-15T01:56:24.952Z,101256.91
2018-04-15T01:59:30.679Z,101253.05
2018-04-15T02:02:36.797Z,101261.17
2018-04-15T02:05:42.576Z,101264.15
2018-04-15T02:08:47.781Z,101269.30
2018-04-15T02:11:53.533Z,101266.73
2018-04-15T02:14:58.732Z,101266.73
2018-04-15T02:18:04.949Z,101265.04
2018-04-15T02:21:11.706Z,101262.89
2018-04-15T02:24:18.853Z,101252.23
2018-04-15T02:27:24.725Z,101250.98
2018-04-15T02:30:30.780Z,101253.56
2018-04-15T02:33:36.185Z,101242.46
2018-04-15T02:36:42.381Z,101239.06
2018-04-15T02:39:48.509Z,101227.09
2018-04-15T02:42:54.134Z,101222.00
2018-04-15T02:46:00.282Z,101227.13
2018-04-15T02:49:06.416Z,101222.44
2018-04-15T02:52:11.629Z,101216.45
2018-04-15T02:55:17.757Z,101221.58
2018-04-15T02:58:22.990Z,101219.02
2018-04-15T03:01:28.218Z,101212.64
2018-04-15T03:04:33.446Z,101211.80
2018-04-15T03:07:38.641Z,101210.08
2018-04-15T03:10:44.062Z,101206.67
2018-04-15T03:13:49.269Z,101199.86
2018-04-15T03:16:56.253Z,101199.88
2018-04-15T03:20:01.889Z,101200.75
2018-04-15T03:23:08.533Z,101206.73
2018-04-15T03:26:13.425Z,101205.03
2018-04-15T03:29:19.069Z,101199.52
2018-04-15T03:32:24.270Z,101194.42
2018-04-15T03:35:29.485Z,101197.85
2018-04-15T03:38:35.509Z,101184.23
2018-04-15T03:41:40.746Z,101190.22
2018-04-15T03:44:47.390Z,101184.71
2018-04-15T03:47:53.007Z,101182.63
2018-04-15T03:50:58.945Z,101172.37
2018-04-15T03:54:03.837Z,101166.87
2018-04-15T03:57:09.468Z,101161.80
2018-04-15T04:00:15.414Z,101166.08
2018-04-15T04:03:21.585Z,101161.44
2018-04-15T04:06:26.822Z,101177.72
2018-04-15T04:09:33.013Z,101173.95
2018-04-15T04:12:39.133Z,101171.89
2018-04-15T04:15:44.529Z,101177.52
2018-04-15T04:19:01.653Z,101178.87
2018-04-15T04:22:18.192Z,101182.34
2018-04-15T04:25:29.985Z,101174.41
2018-04-15T04:28:37.949Z,101176.13
2018-04-15T04:31:43.585Z,101174.46
2018-04-15T04:34:48.805Z,101178.82
2018-04-15T04:37:53.732Z,101176.27
2018-04-15T04:40:59.657Z,101179.73
2018-04-15T04:44:04.865Z,101184.91
2018-04-15T04:47:10.084Z,101184.62
2018-04-15T04:50:15.293Z,101174.41
2018-04-15T04:53:21.428Z,101176.18
2018-04-15T04:56:27.070Z,101167.69
2018-04-15T04:59:32.285Z,101171.56
2018-04-15T05:02:37.490Z,101166.00
2018-04-15T05:05:43.821Z,101175.01
2018-04-15T05:08:49.781Z,101175.03
2018-04-15T05:11:55.724Z,101168.16
2018-04-15T05:15:02.747Z,101163.52
2018-04-15T05:18:08.613Z,101167.83
2018-04-15T05:21:14.562Z,101164.42
2018-04-15T05:24:20.527Z,101171.70
2018-04-15T05:27:26.494Z,101169.59
2018-04-15T05:30:32.625Z,101167.91
2018-04-15T05:33:37.844Z,101166.64
2018-04-15T05:36:43.969Z,101171.78
2018-04-15T05:39:49.180Z,101168.39
2018-04-15T05:42:55.302Z,101164.55
2018-04-15T05:46:00.917Z,101164.11
2018-04-15T05:49:07.050Z,101163.27
2018-04-15T05:52:13.183Z,101155.17
2018-04-15T05:55:20.223Z,101154.31
2018-04-15T05:58:26.249Z,101154.70
2018-04-15T06:01:32.376Z,101152.56
2018-04-15T06:04:38.511Z,101154.68
2018-04-15T06:07:43.912Z,101148.67
2018-04-15T06:10:49.141Z,101148.27
2018-04-15T06:13:54.182Z,101151.61
2018-04-15T06:16:59.596Z,101157.56
2018-04-15T06:20:04.238Z,101156.70
2018-04-15T06:23:09.885Z,101153.23
2018-04-15T06:26:15.909Z,101147.64
2018-04-15T06:29:21.934Z,101157.38
2018-04-15T06:32:27.141Z,101165.42
2018-04-15T06:35:33.317Z,101153.41
2018-04-15T06:38:39.461Z,101151.63
2018-04-15T06:41:45.578Z,101143.03
2018-04-15T06:44:51.274Z,101151.92
2018-04-15T06:47:56.238Z,101150.12
2018-04-15T06:51:02.145Z,101144.05
2018-04-15T06:54:07.358Z,101148.20
2018-04-15T06:57:13.481Z,101148.52
2018-04-15T07:00:18.702Z,101146.70
2018-04-15T07:03:24.855Z,101149.97
2018-04-15T07:06:30.857Z,101140.45
2018-04-15T07:09:36.523Z,101137.36
2018-04-15T07:12:42.793Z,101142.31
2018-04-15T07:15:48.913Z,101146.88
2018-04-15T07:18:55.038Z,101149.69
2018-04-15T07:22:00.445Z,101148.66
2018-04-15T07:25:05.789Z,101151.98
2018-04-15T07:28:11.032Z,101159.08
2018-04-15T07:31:17.155Z,101155.13
2018-04-15T07:34:22.583Z,101152.83
2018-04-15T07:37:27.803Z,101155.28
2018-04-15T07:40:33.220Z,101161.98
2018-04-15T07:43:38.441Z,101162.73
2018-04-15T07:46:43.660Z,101161.75
2018-04-15T07:49:49.573Z,101159.94
2018-04-15T07:52:54.787Z,101159.86
2018-04-15T07:56:00.442Z,101161.91
2018-04-15T07:59:06.387Z,101163.49
2018-04-15T08:02:11.798Z,101154.88
2018-04-15T08:05:17.419Z,101160.78
2018-04-15T08:08:22.633Z,101162.03
2018-04-15T08:11:29.159Z,101168.80
2018-04-15T08:14:34.653Z,101168.75
2018-04-15T08:17:40.781Z,101169.55
2018-04-15T08:20:46.818Z,101162.66
2018-04-15T08:23:52.025Z,101163.05
2018-04-15T08:26:57.653Z,101161.30
2018-04-15T08:30:03.541Z,101157.83
2018-04-15T08:33:09.670Z,101154.83
2018-04-15T08:36:15.281Z,101150.92
2018-04-15T08:39:21.142Z,101146.17
2018-04-15T08:42:26.378Z,101149.55
2018-04-15T08:45:31.611Z,101143.46
2018-04-15T08:48:37.731Z,101146.86
2018-04-15T08:51:42.929Z,101139.94
2018-04-15T08:54:48.981Z,101136.90
2018-04-15T08:57:54.880Z,101135.17
2018-04-15T09:01:01.029Z,101129.98
2018-04-15T09:04:06.853Z,101138.03
2018-04-15T09:07:12.063Z,101125.56
2018-04-15T09:10:17.821Z,101122.94
2018-04-15T09:13:24.042Z,101124.60
2018-04-15T09:16:29.868Z,101118.96
2018-04-15T09:19:34.857Z,101118.06
2018-04-15T09:22:40.689Z,101116.30
2018-04-15T09:25:47.981Z,101105.98
2018-04-15T09:28:53.189Z,101107.65
2018-04-15T09:31:59.814Z,101107.17
2018-04-15T09:35:05.454Z,101104.55
2018-04-15T09:38:11.496Z,101103.64
2018-04-15T09:41:16.697Z,101098.48
2018-04-15T09:44:22.185Z,101093.32
2018-04-15T09:47:27.597Z,101092.42
2018-04-15T09:50:33.737Z,101089.86
2018-04-15T09:53:39.769Z,101087.64
2018-04-15T09:56:45.912Z,101091.05
2018-04-15T09:59:51.779Z,101096.56
2018-04-15T10:02:57.847Z,101090.53
2018-04-15T10:06:03.699Z,101093.06
2018-04-15T10:09:09.711Z,101087.07
2018-04-15T10:12:15.134Z,101087.00
2018-04-15T10:15:19.990Z,101082.64
2018-04-15T10:18:25.710Z,101083.44
2018-04-15T10:21:31.864Z,101088.13
2018-04-15T10:24:37.057Z,101082.96
2018-04-15T10:27:43.069Z,101085.84
2018-04-15T10:30:48.664Z,101081.52
2018-04-15T10:33:54.909Z,101075.91
2018-04-15T10:37:00.741Z,101075.00
2018-04-15T10:40:06.003Z,101069.77
2018-04-15T10:43:11.252Z,101076.92
2018-04-15T10:46:16.974Z,101079.91
2018-04-15T10:49:23.137Z,101070.89
2018-04-15T10:52:29.264Z,101063.55
2018-04-15T10:55:34.485Z,101065.56
2018-04-15T10:58:40.690Z,101056.92
2018-04-15T11:01:45.918Z,101053.46
2018-04-15T11:04:51.658Z,101057.59
2018-04-15T11:07:56.878Z,101042.54
2018-04-15T11:11:03.016Z,101036.47
2018-04-15T11:14:09.102Z,101039.80
2018-04-15T11:17:14.505Z,101024.71
2018-04-15T11:20:20.536Z,101016.08
2018-04-15T11:23:25.745Z,101019.41
2018-04-15T11:26:31.904Z,101012.05
2018-04-15T11:29:36.841Z,101008.97
2018-04-15T11:32:42.509Z,101007.68
2018-04-15T11:35:48.396Z,101004.62
2018-04-15T11:38:53.614Z,101001.98
2018-04-15T11:41:58.863Z,100997.69
2018-04-15T11:45:05.129Z,100986.06
2018-04-15T11:48:10.713Z,100982.20
2018-04-15T11:51:15.930Z,100979.16
2018-04-15T11:54:21.553Z,100972.73
2018-04-15T11:57:26.784Z,100963.75
2018-04-15T12:00:32.033Z,100959.41
2018-04-15T12:03:37.950Z,100958.89
2018-04-15T12:06:44.184Z,100956.66
2018-04-15T12:09:50.033Z,100952.70
2018-04-15T12:12:55.250Z,100942.77
2018-04-15T12:16:00.606Z,100940.13
2018-04-15T12:19:06.768Z,100942.59
2018-04-15T12:22:12.940Z,100936.52
2018-04-15T12:25:18.961Z,100933.80
2018-04-15T12:28:24.169Z,100940.56
2018-04-15T12:31:29.428Z,100938.34
2018-04-15T12:34:35.565Z,100932.33
2018-04-15T12:37:42.197Z,100931.80
2018-04-15T12:40:48.018Z,100925.77
2018-04-15T12:43:53.233Z,100927.45
2018-04-15T12:46:59.286Z,100927.01
2018-04-15T12:50:03.954Z,100928.67
2018-04-15T12:53:10.069Z,100917.07
2018-04-15T12:56:16.235Z,100915.75
2018-04-15T12:59:21.448Z,100906.65
2018-04-15T13:02:28.046Z,100907.82
2018-04-15T13:05:32.995Z,100901.70
2018-04-15T13:08:38.249Z,100901.28
2018-04-15T13:11:43.464Z,100888.40
2018-04-15T13:14:48.404Z,100890.44
2018-04-15T13:17:54.524Z,100889.53
2018-04-15T13:21:00.666Z,100880.05
2018-04-15T13:24:06.831Z,100874.83
2018-04-15T13:27:12.877Z,100872.60
2018-04-15T13:30:18.094Z,100874.34
2018-04-15T13:33:24.122Z,100860.17
2018-04-15T13:36:30.185Z,100860.05
2018-04-15T13:39:36.121Z,100855.33
2018-04-15T13:42:42.056Z,100842.93
2018-04-15T13:45:47.929Z,100851.47
2018-04-15T13:48:53.174Z,100851.44
2018-04-15T13:51:59.220Z,100854.80
2018-04-15T13:55:05.033Z,100850.79
2018-04-15T13:58:10.722Z,100844.81
2018-04-15T14:01:15.959Z,100844.25
2018-04-15T14:04:21.188Z,100846.36
2018-04-15T14:07:27.044Z,100846.33
2018-04-15T14:10:32.283Z,100840.69
2018-04-15T14:13:37.488Z,100842.30
2018-04-15T14:16:42.732Z,100849.52
2018-04-15T14:19:47.959Z,100844.77
2018-04-15T14:22:53.169Z,100845.59
2018-04-15T14:25:58.404Z,100841.66
2018-04-15T14:29:03.613Z,100836.86
2018-04-15T14:32:08.838Z,100837.23
2018-04-15T14:35:14.055Z,100836.70
2018-04-15T14:38:19.279Z,100828.52
2018-04-15T14:41:24.257Z,100820.69
2018-04-15T14:44:29.477Z,100815.84
2018-04-15T14:47:34.702Z,100813.95
2018-04-15T14:50:40.518Z,100812.08
2018-04-15T14:53:45.723Z,100814.49
2018-04-15T14:56:50.944Z,100820.80
2018-04-15T14:59:56.972Z,100820.17
2018-04-15T15:03:02.199Z,100820.47
2018-04-15T15:06:07.417Z,100816.45
2018-04-15T15:09:14.520Z,100809.94
2018-04-15T15:12:21.376Z,100816.12
2018-04-15T15:15:27.027Z,100818.36
2018-04-15T15:18:32.397Z,100819.85
2018-04-15T15:21:37.345Z,100821.97
2018-04-15T15:24:42.825Z,100817.66
2018-04-15T15:27:47.566Z,100817.95
2018-04-15T15:30:54.250Z,100816.91
2018-04-15T15:33:59.614Z,100816.37
2018-04-15T15:37:05.087Z,100820.18
2018-04-15T15:40:10.015Z,100819.17
2018-04-15T15:43:15.784Z,100805.31
2018-04-15T15:46:21.020Z,100801.83
2018-04-15T15:49:26.159Z,100803.91
2018-04-15T15:52:31.840Z,100794.02
2018-04-15T15:55:37.680Z,100801.23
2018-04-15T15:58:43.026Z,100802.86
2018-04-15T16:01:48.591Z,100801.98
2018-04-15T16:04:53.518Z,100806.17
2018-04-15T16:07:58.898Z,100807.42
2018-04-15T16:11:03.891Z,100809.03
2018-04-15T16:14:08.812Z,100808.83
2018-04-15T16:17:14.204Z,100808.41
2018-04-15T16:20:19.157Z,100813.14
2018-04-15T16:23:24.766Z,100817.33
2018-04-15T16:26:29.497Z,100817.41
2018-04-15T16:29:35.154Z,100814.84
2018-04-15T16:32:40.081Z,100821.19
2018-04-15T16:35:45.048Z,100818.25
2018-04-15T16:38:50.993Z,100814.47
2018-04-15T16:41:55.929Z,100813.77
2018-04-15T16:45:01.823Z,100815.05
2018-04-15T16:48:07.691Z,100822.86
2018-04-15T16:51:12.655Z,100810.91
2018-04-15T16:54:19.490Z,100811.82
2018-04-15T16:57:24.563Z,100810.95
2018-04-15T17:00:29.925Z,100809.74
2018-04-15T17:03:35.085Z,100807.63
2018-04-15T17:06:40.024Z,100814.11
2018-04-15T17:09:45.363Z,100811.58
2018-04-15T17:12:52.169Z,100809.01
2018-04-15T17:15:58.424Z,100804.31
2018-04-15T17:19:03.778Z,100806.52
2018-04-15T17:22:08.730Z,100806.59
2018-04-15T17:25:14.514Z,100807.97
2018-04-15T17:28:20.623Z,100813.48
2018-04-15T17:31:27.096Z,100819.17
2018-04-15T17:34:32.468Z,100822.63
2018-04-15T17:37:37.681Z,100821.38
2018-04-15T17:40:43.554Z,100818.06
2018-04-15T17:43:48.544Z,100812.09
2018-04-15T17:46:54.159Z,100810.02
2018-04-15T17:50:00.018Z,100808.41
2018-04-15T17:53:04.985Z,100817.48
2018-04-15T17:56:10.122Z,100814.55
2018-04-15T17:59:16.513Z,100816.74
2018-04-15T18:02:21.868Z,100816.83
2018-04-15T18:05:27.029Z,100821.59
2018-04-15T18:08:32.149Z,100826.79
2018-04-15T18:11:37.607Z,100825.58
2018-04-15T18:14:42.545Z,100826.91
2018-04-15T18:17:47.913Z,100827.45
2018-04-15T18:20:52.882Z,100828.36
2018-04-15T18:23:58.020Z,100829.73
2018-04-15T18:27:02.964Z,100835.33
2018-04-15T18:30:08.520Z,100838.81
2018-04-15T18:33:13.457Z,100844.08
2018-04-15T18:36:18.921Z,100840.72
2018-04-15T18:39:25.002Z,100843.79
2018-04-15T18:42:30.862Z,100850.26
2018-04-15T18:45:35.798Z,100849.47
2018-04-15T18:48:41.458Z,100847.39
2018-04-15T18:51:46.389Z,100864.15
2018-04-15T18:54:51.629Z,100866.80
2018-04-15T18:57:56.999Z,100863.89
2018-04-15T19:01:01.941Z,100873.77
2018-04-15T19:04:07.497Z,100870.86
2018-04-15T19:07:13.361Z,100864.52
2018-04-15T19:10:18.308Z,100872.68
2018-04-15T19:13:24.065Z,100878.77
2018-04-15T19:16:29.966Z,100873.25
2018-04-15T19:19:34.661Z,100870.76
2018-04-15T19:22:40.530Z,100871.22
2018-04-15T19:25:45.466Z,100866.56
2018-04-15T19:28:50.922Z,100864.05
2018-04-15T19:31:56.786Z,100860.76
2018-04-15T19:35:02.016Z,100867.22
2018-04-15T19:38:07.464Z,100859.63
2018-04-15T19:41:13.499Z,100863.11
2018-04-15T19:44:18.623Z,100863.23
2018-04-15T19:47:23.987Z,100859.88
2018-04-15T19:50:28.973Z,100844.19
2018-04-15T19:53:34.324Z,100850.69
2018-04-15T19:56:39.319Z,100856.41
2018-04-15T19:59:44.792Z,100858.22
2018-04-15T20:02:49.771Z,100850.18
2018-04-15T20:05:55.783Z,100846.44
2018-04-15T20:09:00.720Z,100843.98
2018-04-15T20:12:06.478Z,100841.95
2018-04-15T20:15:11.415Z,100842.48
2018-04-15T20:18:16.853Z,100832.70
2018-04-15T20:21:22.720Z,100817.81
2018-04-15T20:24:28.113Z,100817.89
2018-04-15T20:27:34.901Z,100814.98
2018-04-15T20:30:39.845Z,100813.40
2018-04-15T20:33:45.611Z,100821.64
2018-04-15T20:36:51.998Z,100812.77
2018-04-15T20:39:57.384Z,100806.01
2018-04-15T20:43:02.317Z,100809.56
2018-04-15T20:46:07.775Z,100819.12
2018-04-15T20:49:13.636Z,100814.55
2018-04-15T20:52:19.397Z,100815.53
2018-04-15T20:55:25.281Z,100815.27
2018-04-15T20:58:31.291Z,100805.57
2018-04-15T21:01:36.437Z,100804.02
2018-04-15T21:04:41.661Z,100798.25
2018-04-15T21:07:46.594Z,100796.28
2018-04-15T21:10:51.581Z,100794.33
2018-04-15T21:13:56.516Z,100795.00
2018-04-15T21:17:01.852Z,100785.75
2018-04-15T21:20:07.070Z,100785.56
2018-04-15T21:23:12.029Z,100783.19
2018-04-15T21:26:17.258Z,100782.13
2018-04-15T21:29:22.717Z,100778.02
2018-04-15T21:32:27.665Z,100776.05
2018-04-15T21:35:32.597Z,100771.93
2018-04-15T21:38:37.323Z,100759.25
2018-04-15T21:41:42.425Z,100762.91
2018-04-15T21:44:47.377Z,100764.78
2018-04-15T21:47:52.984Z,100776.06
2018-04-15T21:50:57.917Z,100779.27
2018-04-15T21:54:03.466Z,100778.65
2018-04-15T21:57:09.409Z,100787.01
2018-04-15T22:00:14.653Z,100786.39
2018-04-15T22:03:19.573Z,100791.21
2018-04-15T22:06:24.965Z,100808.54
2018-04-15T22:09:29.574Z,100806.36
2018-04-15T22:12:35.226Z,100801.06
2018-04-15T22:15:41.015Z,100802.65
2018-04-15T22:18:46.684Z,100797.62
2018-04-15T22:21:52.441Z,100792.42
2018-04-15T22:24:57.034Z,100779.98
2018-04-15T22:28:01.975Z,100778.73
2018-04-15T22:31:07.748Z,100777.77
2018-04-15T22:34:13.857Z,100784.81
2018-04-15T22:37:19.629Z,100794.69
2018-04-15T22:40:25.297Z,100801.22
2018-04-15T22:43:31.171Z,100803.56
2018-04-15T22:46:37.125Z,100807.13
2018-04-15T22:49:43.345Z,100796.20
2018-04-15T22:52:48.278Z,100772.91
2018-04-15T22:55:52.977Z,100761.92
2018-04-15T22:58:57.953Z,100758.63
2018-04-15T23:02:03.773Z,100758.80
2018-04-15T23:05:08.712Z,100754.12
2018-04-15T23:08:14.545Z,100743.56
2018-04-15T23:11:20.290Z,100737.68
2018-04-15T23:14:25.656Z,100733.65
2018-04-15T23:17:31.961Z,100738.45
2018-04-15T23:20:37.875Z,100736.85
2018-04-15T23:23:43.091Z,100743.34
2018-04-15T23:26:48.305Z,100749.72
2018-04-15T23:29:53.508Z,100751.22
2018-04-15T23:32:59.312Z,100752.53
2018-04-15T23:36:04.732Z,100747.92
2018-04-15T23:39:09.958Z,100752.41
2018-04-15T23:42:15.896Z,100746.13
2018-04-15T23:45:21.929Z,100744.11
2018-04-15T23:48:27.185Z,100747.47
2018-04-15T23:51:33.534Z,100741.74
2018-04-15T23:54:39.477Z,100749.00
2018-04-15T23:57:45.374Z,100757.22
